Time;durP1;ratioP1;P1;durP2;ratioP2;P2;SDS_P1;SDS_P2;PMS_P1;PMS_P2;Temp;Humidity;BMP_temperature;BMP_pressure;BME280_temperature;BME280_humidity;BME280_pressure;Samples;Min_cycle;Max_cycle;Signal;HPM_P1;HPM_P2
2024/04/16 00:19:59;;;;;;;15.33;11.60;;;6.70;99.90;;;;;;5808131;23;20707;-85
2024/04/16 00:55:36;;;;;;;16.67;10.07;;;6.80;99.90;;;;;;5881921;23;20514;-82
2024/04/16 01:20:43;;;;;;;16.67;10.70;;;7.30;99.90;;;;;;5808403;23;20192;-81
2024/04/16 01:41:19;;;;;;;18.80;12.93;;;7.00;99.90;;;;;;5884839;24;20247;-83
2024/04/16 02:01:35;;;;;;;19.07;12.83;;;7.20;99.90;;;;;;5933719;23;20160;-81
2024/04/16 02:21:48;;;;;;;19.73;13.20;;;7.40;99.90;;;;;;5852557;23;20882;-81
2024/04/16 02:57:06;;;;;;;16.67;11.47;;;6.60;99.90;;;;;;5725844;24;20574;-79
2024/04/16 03:17:39;;;;;;;17.90;12.70;;;7.00;99.90;;;;;;5562256;24;20935;-82
2024/04/16 03:48:05;;;;;;;20.10;12.50;;;7.40;99.90;;;;;;5564076;24;20505;-83
2024/04/16 04:07:55;;;;;;;19.07;13.53;;;7.60;99.90;;;;;;5470741;24;20686;-85
2024/04/16 04:33:44;;;;;;;20.37;15.07;;;7.90;99.90;;;;;;5624180;24;20502;-85
2024/04/16 04:58:59;;;;;;;15.00;12.73;;;8.50;99.90;;;;;;5749673;24;20556;-82
2024/04/16 05:29:35;;;;;;;5.07;3.33;;;8.30;99.90;;;;;;5947152;23;20376;-81
2024/04/16 06:05:00;;;;;;;3.00;2.80;;;7.80;99.90;;;;;;5762488;23;20185;-81
2024/04/16 06:24:59;;;;;;;2.40;2.30;;;9.20;94.70;;;;;;5546532;24;20606;-82
2024/04/16 06:50:33;;;;;;;2.10;2.00;;;9.10;91.10;;;;;;5657383;24;20500;-81
2024/04/16 07:15:53;;;;;;;3.30;3.00;;;9.00;90.90;;;;;;5661408;24;20189;-81
2024/04/16 07:45:55;;;;;;;2.90;2.27;;;9.80;85.00;;;;;;5446211;25;20652;-82
2024/04/16 08:37:22;;;;;;;2.30;2.20;;;10.80;71.30;;;;;;5555588;24;20194;-81
2024/04/16 09:07:09;;;;;;;2.40;2.20;;;9.70;72.20;;;;;;5329479;25;20646;-81
2024/04/16 10:44:10;;;;;;;2.70;1.90;;;11.10;67.20;;;;;;5524502;24;20299;-82
2024/04/16 11:04:08;;;;;;;1.97;1.80;;;11.60;61.50;;;;;;5643495;24;20609;-82
2024/04/16 11:34:25;;;;;;;2.00;1.90;;;11.50;60.10;;;;;;5544453;24;20485;-83
2024/04/16 12:56:00;;;;;;;2.17;1.80;;;12.10;58.50;;;;;;5538230;24;20334;-82
2024/04/16 13:26:28;;;;;;;3.07;1.93;;;12.50;57.60;;;;;;5922560;23;20662;-83
2024/04/16 14:01:20;;;;;;;2.00;1.70;;;12.00;56.30;;;;;;5649573;24;20641;-88
2024/04/16 14:27:24;;;;;;;1.90;1.80;;;12.30;55.80;;;;;;5735104;24;20268;-85
2024/04/16 14:57:09;;;;;;;3.53;2.30;;;11.90;57.80;;;;;;5704572;23;20267;-83
2024/04/16 15:13:02;;;;;;;2.23;2.03;;;12.10;57.90;;;;;;5618192;24;21110;-83
2024/04/16 15:33:00;;;;;;;2.27;1.70;;;11.70;59.50;;;;;;5566317;24;20727;-84
2024/04/16 16:08:52;;;;;;;3.33;1.90;;;11.40;60.50;;;;;;5972551;23;20170;-85
2024/04/16 16:38:38;;;;;;;2.20;1.97;;;10.80;62.80;;;;;;5628885;24;20607;-85
2024/04/16 16:42:09;;;;;;;2.80;2.00;;;10.80;62.80;;;;;;5686269;24;20551;-84
2024/04/16 17:24:35;;;;;;;2.90;1.73;;;9.70;69.60;;;;;;5817143;24;20676;-87
2024/04/16 18:05:10;;;;;;;3.10;2.90;;;8.80;87.60;;;;;;5625271;24;20963;-86
2024/04/16 18:56:13;;;;;;;2.93;2.73;;;6.00;99.90;;;;;;5659517;24;20217;-85
2024/04/16 19:41:15;;;;;;;6.23;4.30;;;5.70;99.90;;;;;;5917101;23;20508;-85
2024/04/16 20:06:34;;;;;;;4.97;4.57;;;5.40;99.90;;;;;;5796227;24;21199;-85
2024/04/16 20:27:30;;;;;;;6.40;5.53;;;5.10;99.90;;;;;;5771602;24;20256;-84
2024/04/16 20:52:30;;;;;;;8.80;6.90;;;4.50;99.90;;;;;;5692528;24;20588;-85
2024/04/16 22:23:38;;;;;;;16.60;12.87;;;3.70;99.90;;;;;;6130063;22;20168;-83
2024/04/16 22:53:49;;;;;;;18.07;13.57;;;3.50;99.90;;;;;;5801729;24;20400;-87
2024/04/16 23:54:46;;;;;;;19.83;14.37;;;2.80;99.90;;;;;;5946020;23;20600;-84
